Flight Track Log - Related Links

Times and Time Zones

All times are in EDT time to prevent confusion due to time zone crossing. See the TRS1718 flight status page for this flight to view local times or setup timezone preferences in your user account.

Time Position Orientation Groundspeed Altitude Reporting Facility
EDT Latitude Longitude Course Direction KTS MPH feet Rate Location/Type
Sun 10:48:35 AM 39.8000 -104.6667 197° South 179 206 6,600  Level Denver TRACON
Sun 10:49:29 AM 39.7500 -104.6333 153° Southeast 236 272 8,300 2,645 Climbing Denver TRACON
Sun 10:50:08 AM 39.7058 -104.6142 162° South 279 321 10,700 3,446 Climbing Denver Center
Sun 10:51:10 AM 39.6150 -104.5758 162° South 353 406 14,100 3,629 Climbing Denver Center
Sun 10:52:12 AM 39.5050 -104.5683 177° South 374 430 18,200 3,823 Climbing Denver Center
Sun 10:53:14 AM 39.4000 -104.5900 189° South 386 444 22,000 3,194 Climbing Denver Center
Sun 10:54:00 AM 38.9392 -105.0777 197° South  Level FlightAware Approximate
Sun 10:54:16 AM 39.2983 -104.6317 198° South 393 452 24,800  Level Denver Center
Sun 10:55:18 AM 39.1853 -104.6778 198° South 419 482 27,500 2,468 Climbing Denver Center
Sun 10:56:20 AM 39.0703 -104.7256 198° South 427 491 29,900 2,274 Climbing Denver Center
Sun 10:57:22 AM 38.9364 -104.8036 204° Southwest 448 516 32,200 2,081 Climbing Denver Center
Sun 10:58:24 AM 38.8214 -104.8747 206° Southwest 450 518 34,200 1,355 Climbing Denver Center
Sun 10:59:26 AM 38.7047 -104.9489 206° Southwest 460 529 35,000 390 Climbing Denver Center
Sun 11:00:27 AM 38.5911 -105.0286 209° Southwest 461 531 35,000 439 Level Denver Center
Sun 11:01:29 AM 38.4778 -105.1064 208° Southwest 458 527 35,900 1,452 Climbing Denver Center
Sun 11:02:31 AM 38.3656 -105.1839 208° Southwest 455 524 38,000 1,984 Climbing Denver Center
Sun 11:03:33 AM 38.2528 -105.2606 208° Southwest 445 512 40,000 968 Climbing Denver Center
Sun 11:04:35 AM 38.1308 -105.3442 208° Southwest 447 514 40,000  Level Denver Center
Sun 11:05:37 AM 38.0250 -105.4164 208° Southwest 451 519 40,000  Level Denver Center
Sun 11:06:39 AM 37.9022 -105.5000 208° Southwest 449 517 40,000  Level Denver Center
Sun 11:07:41 AM 37.7986 -105.5697 208° Southwest 444 511 40,000  Level Denver Center
Sun 11:08:43 AM 37.6900 -105.6392 207° Southwest 451 519 40,000  Level Denver Center
Sun 11:09:45 AM 37.5625 -105.7039 202° Southwest 444 511 40,000  Level Denver Center
Sun 11:10:47 AM 37.4497 -105.7611 202° Southwest 447 514 40,000  Level Denver Center
Sun 11:11:49 AM 37.3219 -105.8269 202° Southwest 446 513 40,000  Level Denver Center
Sun 11:12:51 AM 37.2086 -105.8781 200° South 449 517 40,000  Level Denver Center
Sun 11:13:53 AM 37.0761 -105.9353 199° South 450 518 40,000  Level Denver Center
Sun 11:14:55 AM 36.9653 -105.9856 200° South 453 521 40,000  Level Denver Center
Sun 11:15:57 AM 36.8308 -106.0450 199° South 457 526 40,000  Level Denver Center
Sun 11:16:58 AM 36.7175 -106.0947 199° South 458 527 40,000  Level Denver Center
Sun 11:17:51 AM 36.5958 -106.1489 200° South 468 539 40,000  Level Albuquerque Center
Sun 11:18:53 AM 36.4842 -106.2000 200° South 456 525 40,000  Level Albuquerque Center
Sun 11:19:55 AM 36.3714 -106.2492 199° South 450 518 40,000  Level Albuquerque Center
Sun 11:20:57 AM 36.2389 -106.3069 199° South 450 518 40,000  Level Albuquerque Center
Sun 11:21:59 AM 36.1275 -106.3556 199° South 445 512 40,000  Level Albuquerque Center
Sun 11:23:01 AM 36.0111 -106.4056 199° South 442 509 40,000  Level Albuquerque Center
Sun 11:24:03 AM 35.8869 -106.4589 199° South 439 505 40,000  Level Albuquerque Center
Sun 11:25:05 AM 35.7575 -106.5144 199° South 439 505 40,000  Level Albuquerque Center
Sun 11:26:06 AM 35.6400 -106.5644 199° South 441 507 40,000  Level Albuquerque Center
Sun 11:27:08 AM 35.5233 -106.6136 199° South 444 511 40,000  Level Albuquerque Center
Sun 11:28:10 AM 35.4061 -106.6642 199° South 444 511 40,000  Level Albuquerque Center
Sun 11:29:12 AM 35.2919 -106.7125 199° South 439 505 40,000  Level Albuquerque Center
Sun 11:30:14 AM 35.1606 -106.7681 199° South 442 509 40,000  Level Albuquerque Center
Sun 11:31:16 AM 35.0425 -106.8200 200° South 464 534 40,000  Level Albuquerque Center
Sun 11:32:18 AM 34.9069 -106.8558 192° South 447 514 40,000  Level Albuquerque Center
Sun 11:33:20 AM 34.7969 -106.8831 191° South 450 518 40,000  Level Albuquerque Center
Sun 11:34:22 AM 34.6725 -106.9175 193° South 455 524 40,000  Level Albuquerque Center
Sun 11:35:24 AM 34.5267 -106.9575 193° South 449 517 40,000  Level Albuquerque Center
Sun 11:36:26 AM 34.4044 -106.9903 192° South 452 520 40,000 -48 Level Albuquerque Center
Sun 11:37:28 AM 34.2761 -107.0250 193° South 450 518 39,900 -49 Descending Albuquerque Center
Sun 11:38:29 AM 34.1542 -107.0539 191° South 448 516 39,900 49 Level Albuquerque Center
Sun 11:39:31 AM 34.0319 -107.0872 193° South 449 517 40,000  Climbing Albuquerque Center
Sun 11:40:33 AM 33.9089 -107.1175 192° South 451 519 39,900  Descending Albuquerque Center
Sun 11:41:35 AM 33.7853 -107.1519 193° South 454 522 40,000 48 Climbing Albuquerque Center
Sun 11:42:37 AM 33.6611 -107.1836 192° South 456 525 40,000 -48 Level Albuquerque Center
Sun 11:43:39 AM 33.5133 -107.2211 192° South 454 522 39,900 -49 Descending Albuquerque Center
Sun 11:44:40 AM 33.3911 -107.2525 192° South 452 520 39,900 49 Level Albuquerque Center
Sun 11:45:42 AM 33.2675 -107.2717 187° South 454 522 40,000  Climbing Albuquerque Center
Sun 11:46:44 AM 33.1444 -107.2283 164° South 460 529 39,900 -48 Descending Albuquerque Center
Sun 11:47:46 AM 33.0236 -107.1811 162° South 458 527 39,900  Level Albuquerque Center
Sun 11:48:47 AM 32.9017 -107.1364 163° South 457 526 39,900  Level Albuquerque Center
Sun 11:49:49 AM 32.7806 -107.0881 161° South 458 527 39,900  Level Albuquerque Center
Sun 11:50:51 AM 32.6458 -107.0369 162° South 459 528 39,900 48 Level Albuquerque Center
Sun 11:51:53 AM 32.5236 -106.9889 162° South 462 532 40,000 48 Climbing Albuquerque Center
Sun 11:52:55 AM 32.3831 -106.9339 162° South 459 528 40,000  Level Albuquerque Center
Sun 11:53:56 AM 32.2603 -106.8856 162° South 463 533 40,000 -49 Level Albuquerque Center
Sun 11:54:58 AM 32.1347 -106.8400 163° South 467 537 39,900 -48 Descending Albuquerque Center
Sun 11:56:00 AM 32.0117 -106.7944 163° South 464 534 39,900 48 Level Albuquerque Center
Sun 11:57:02 AM 31.8878 -106.7489 163° South 465 535 40,000  Climbing Albuquerque Center
Sun 11:58:04 AM 31.7653 -106.7217 169° South 451 519 39,900  Descending Albuquerque Center
Sun 11:59:06 AM 31.6472 -106.7592 195° South 438 504 40,000  Climbing Albuquerque Center
Sun 12:00:08 PM 31.5308 -106.7986 196° South 435 501 39,900 -97 Descending Albuquerque Center
Sun 12:02:00 PM 31.3205 -106.8681 196° South  Level FlightAware Approximate
Sun 12:09:00 PM 30.5314 -107.1262 196° South  Level FlightAware Approximate
Sun 12:10:00 PM 30.4186 -107.1627 196° South  Level FlightAware Approximate
Sun 12:11:00 PM 30.3058 -107.1991 196° South  Level FlightAware Approximate
Sun 12:12:00 PM 30.1930 -107.2355 196° South  Level FlightAware Approximate
Sun 12:13:00 PM 30.0802 -107.2717 196° South  Level FlightAware Approximate
Sun 12:14:00 PM 29.9674 -107.3079 196° South  Level FlightAware Approximate
Sun 12:15:00 PM 29.8546 -107.3440 196° South  Level FlightAware Approximate
Sun 12:16:00 PM 29.7418 -107.3800 195° South  Level FlightAware Approximate
Sun 12:17:00 PM 29.6289 -107.4160 195° South  Level FlightAware Approximate
Sun 12:18:00 PM 29.5161 -107.4518 195° South  Level FlightAware Approximate
Sun 12:19:00 PM 29.4032 -107.4876 195° South  Level FlightAware Approximate
Sun 12:20:00 PM 29.2904 -107.5233 195° South  Level FlightAware Approximate
Sun 12:21:00 PM 29.1775 -107.5589 195° South  Level FlightAware Approximate
Sun 12:22:00 PM 29.0644 -107.5940 195° South  Level FlightAware Approximate
Sun 12:23:00 PM 28.9512 -107.6281 195° South  Level FlightAware Approximate
Sun 12:24:00 PM 28.8380 -107.6621 195° South  Level FlightAware Approximate
Sun 12:25:00 PM 28.7248 -107.6961 195° South  Level FlightAware Approximate
Sun 12:26:00 PM 28.6115 -107.7299 195° South  Level FlightAware Approximate
Sun 12:27:00 PM 28.4995 -107.7686 197° South  Level FlightAware Approximate
Sun 12:28:00 PM 28.3876 -107.8078 197° South  Level FlightAware Approximate
Sun 12:29:00 PM 28.2757 -107.8469 197° South  Level FlightAware Approximate
Sun 12:30:00 PM 28.1626 -107.8813 195° South  Level FlightAware Approximate
Sun 12:31:00 PM 28.0494 -107.9153 195° South  Level FlightAware Approximate
Sun 12:32:00 PM 27.9362 -107.9491 195° South  Level FlightAware Approximate
Sun 12:33:00 PM 27.8234 -107.9844 195° South  Level FlightAware Approximate
Sun 12:34:00 PM 27.7105 -108.0197 195° South  Level FlightAware Approximate
Sun 12:35:00 PM 27.5974 -108.0538 195° South  Level FlightAware Approximate
Sun 12:36:00 PM 27.4841 -108.0872 195° South  Level FlightAware Approximate
Sun 12:37:00 PM 27.3708 -108.1206 195° South  Level FlightAware Approximate
Sun 12:38:00 PM 27.2576 -108.1539 195° South  Level FlightAware Approximate
Sun 12:39:00 PM 27.1443 -108.1871 195° South  Level FlightAware Approximate
Sun 12:40:00 PM 27.0310 -108.2202 195° South  Level FlightAware Approximate
Sun 12:41:00 PM 26.9177 -108.2533 195° South  Level FlightAware Approximate
Sun 12:42:00 PM 26.8043 -108.2863 195° South  Level FlightAware Approximate
Sun 12:43:00 PM 26.6923 -108.3225 214° Southwest  Level FlightAware Approximate
Sun 12:44:00 PM 26.5951 -108.3955 214° Southwest  Level FlightAware Approximate
Sun 12:45:00 PM 26.4979 -108.4684 214° Southwest  Level FlightAware Approximate
Sun 12:46:00 PM 26.4007 -108.5412 214° Southwest  Level FlightAware Approximate
Sun 12:47:00 PM 26.3035 -108.6142 214° Southwest  Level FlightAware Approximate
Sun 12:48:00 PM 26.2063 -108.6870 214° Southwest  Level FlightAware Approximate
Sun 12:49:00 PM 26.1073 -108.7564 211° Southwest  Level FlightAware Approximate
Sun 12:50:00 PM 26.0069 -108.8235 211° Southwest  Level FlightAware Approximate
Sun 12:51:00 PM 25.9065 -108.8905 211° Southwest  Level FlightAware Approximate
Sun 12:52:00 PM 25.8061 -108.9574 211° Southwest  Level FlightAware Approximate
Sun 12:53:00 PM 25.7056 -109.0242 211° Southwest  Level FlightAware Approximate
Sun 12:54:00 PM 25.5970 -109.0663 196° South  Level FlightAware Approximate
Sun 12:55:00 PM 25.4841 -109.1011 196° South  Level FlightAware Approximate
Sun 12:56:00 PM 25.3707 -109.1329 193° South  Level FlightAware Approximate
Sun 12:57:00 PM 25.2567 -109.1624 193° South  Level FlightAware Approximate
Sun 12:58:00 PM 25.1427 -109.1918 193° South  Level FlightAware Approximate
Sun 12:59:00 PM 25.0286 -109.2212 193° South  Level FlightAware Approximate
Sun 01:00:00 PM 24.9146 -109.2507 197° South  Level FlightAware Approximate
Sun 01:01:00 PM 24.8013 -109.2806 195° South  Level FlightAware Approximate
Sun 01:02:00 PM 24.6880 -109.3130 195° South  Level FlightAware Approximate
Sun 01:03:00 PM 24.5745 -109.3446 194° South  Level FlightAware Approximate
Sun 01:04:00 PM 24.4607 -109.3749 194° South  Level FlightAware Approximate
Sun 01:05:00 PM 24.3469 -109.4050 193° South  Level FlightAware Approximate
Sun 01:06:00 PM 24.2329 -109.4342 193° South  Level FlightAware Approximate
Sun 01:07:00 PM 24.1190 -109.4640 193° South  Level FlightAware Approximate
Sun 01:08:00 PM 24.0051 -109.4937 193° South  Level FlightAware Approximate
Sun 01:09:00 PM 23.8907 -109.5187 191° South  Level FlightAware Approximate
Sun 01:10:00 PM 23.7759 -109.5442 191° South  Level FlightAware Approximate
Sun 01:11:00 PM 23.6633 -109.5789 197° South  Level FlightAware Approximate
Sun 01:12:00 PM 23.5514 -109.6162 197° South  Level FlightAware Approximate
Sun 01:13:00 PM 23.4362 -109.6394 190° South  Level FlightAware Approximate
Sun 01:14:00 PM 23.3234 -109.6667 180° South  Level FlightAware Approximate
Sun 01:15:00 PM 23.2118 -109.7010 190° South  Level FlightAware Approximate
Sun 01:16:00 PM 23.1518 -109.7210 190° South  Level Estimated
Sun 01:17:00 PM 23.1518 -109.7210 190° South  Level Estimated
Sun 01:18:00 PM 23.1518 -109.7210 190° South  Level Estimated
Sun 01:19:00 PM 23.1518 -109.7210 190° South  Level Estimated
Sun 01:20:00 PM 23.1518 -109.7210 190° South  Level Estimated
Sun 01:21:00 PM 23.1518 -109.7210 190° South  Level Estimated
Sun 01:22:00 PM 23.1518 -109.7210 190° South  Level Estimated
Sun 01:23:00 PM 23.1518 -109.7210 190° South  Level Estimated
Sun 01:24:00 PM 23.1518 -109.7210 190° South  Level Estimated
Sun 01:25:00 PM 23.1518 -109.7210 190° South  Level Estimated
Sun 01:26:00 PM 23.1518 -109.7210 190° South  Level Estimated
Sun 01:27:00 PM 23.1518 -109.7210 190° South  Level Estimated
Sun 01:28:00 PM 23.1518 -109.7210 190° South  Level Estimated
Sun 01:29:00 PM 23.1518 -109.7210 190° South  Level Estimated

Login

Don't have an account? Register now (free) for customized features, flight alerts, and more!